Nearby METAR Reports

 

EGPN - Dundee/Riverside, United Kingdom
Distance from station: SSE 10km
Updated: 29/02/2024 20:50
NOT Current
Few Clouds
Few Clouds
 Wind from W
Wind: W 9 mph , 15 km/h
Temperature: 5°C
Wind Chill: 2°C
Dew Point: 2°C
Humidity: 81%
Barometer: 994 hPa
Clouds: Few Clouds
Visibility: 6 miles , 10 km
Cloud details: Few Clouds 1219 m
2024/02/29 20:50 EGPN 292050Z 27008KT 9999 FEW040 05/02 Q0994
EGQL - Leuchars Raf, United Kingdom
Distance from station: SE 21km
Updated: 01/03/2024 03:50
Clear
Clear
 Wind from N
Wind: N 1 mph , 2 km/h
Temperature: -1°C
Dew Point: -2°C
Humidity: 93%
Barometer: 994 hPa
Summary: Clear
Visibility: greater than 7 miles , 10 km
2024/03/01 03:50 EGQL 010350Z 36001KT CAVOK M01/M02 Q0994 RMK BLU
 
EGPH - Edinburgh Airpor, United Kingdom
Distance from station: SSW 67km
Updated: 01/03/2024 04:20
Mostly cloudy
Mostly cloudy
 Wind from varies
Wind: varies 1 mph , 2 km/h
Temperature: -1°C
Dew Point: -2°C
Humidity: 93%
Barometer: 993 hPa
Clouds: Mostly cloudy
Visibility: 6 miles , 10 km
Cloud details: Mostly cloudy 1067 m
2024/03/01 04:20 EGPH 010420Z VRB01KT 9999 BKN035 M01/M02 Q0993
EGPD - Aberdeen/Dyce, United Kingdom
Distance from station: NE 91km
Updated: 01/03/2024 04:20
Mostly cloudy
Mostly cloudy
 Wind from varies
Wind: varies 1 mph , 2 km/h
Temperature: -1°C
Dew Point: -2°C
Humidity: 93%
Barometer: 994 hPa
Clouds: Mostly cloudy
Visibility: 6 miles , 10 km
Cloud details: Mostly cloudy 1311 m
2024/03/01 04:20 EGPD 010420Z AUTO VRB01KT 9999 BKN043 M01/M02 Q0994
 
EGPF - Glasgow Airport, United Kingdom
Distance from station: SW 111km
Updated: 01/03/2024 04:20
Clear
Clear
 Wind from ENE
Wind: ENE 7 mph , 11 km/h
Temperature: 0°C
Wind Chill: -4°C
Dew Point: -1°C
Humidity: 93%
Barometer: 993 hPa
Clouds: Clear
Visibility: 6 miles , 10 km
2024/03/01 04:20 EGPF 010420Z AUTO 07006KT 9999 NCD 00/M01 Q0993
EGPE - Inverness/Dalcro, United Kingdom
Distance from station: NNW 124km
Updated: 01/03/2024 04:20
Clear
Clear
 Wind from calm
Wind: Calm
Temperature: -3°C
Dew Point: -3°C
Humidity: 100%
Barometer: 994 hPa
Summary: Clear
Visibility: greater than 7 miles , 10 km
2024/03/01 04:20 EGPE 010420Z 00000KT CAVOK M03/M03 Q0994
 
EGQK - Kinloss Raf, United Kingdom
Distance from station: NNW 128km
Updated: 01/03/2024 04:20
Partly cloudy
Partly cloudy
 Wind from calm
Wind: Calm
Temperature: -2°C
Dew Point: -3°C
Humidity: 93%
Barometer: 993 hPa
Clouds: Partly cloudy
Visibility: 6 miles , 10 km
Cloud details: Partly cloudy 1737 m
2024/03/01 04:20 EGQK 010420Z AUTO 00000KT 9999 SCT057/// M02/M03 Q0993
EGQS - Lossiemouth Raf, United Kingdom
Distance from station: N 133km
Updated: 01/03/2024 03:50
Clear
Clear
 Wind from SSW
Wind: SSW 5 mph , 7 km/h
Temperature: -2°C
Wind Chill: -6°C
Dew Point: -3°C
Humidity: 93%
Barometer: 993 hPa
Summary: Clear
Visibility: greater than 7 miles , 10 km
2024/03/01 03:50 EGQS 010350Z 20004KT CAVOK M02/M03 Q0993 NOSIG RMK BLU BLU
 
EGPK - Prestwick(Civ/Na, United Kingdom
Distance from station: SW 148km
Updated: 01/03/2024 04:20
Clear
Clear
 Wind from E
Wind: E 13 mph , 20 km/h
Temperature: 1°C
Wind Chill: -4°C
Dew Point: 0°C
Humidity: 93%
Barometer: 992 hPa
Summary: Clear
Visibility: greater than 7 miles , 10 km
2024/03/01 04:20 EGPK 010420Z 09011KT CAVOK 01/M00 Q0992
EGQA - Tain Range (saws, United Kingdom
Distance from station: NNW 154km
Updated: 01/03/2024 04:20
Clear
Clear
 Wind from S
Wind: S 2 mph , 4 km/h
Temperature: -1°C
Dew Point: -3°C
Humidity: 86%
Barometer: 993 hPa
Clouds: Clear
Visibility: 6 miles , 10 km
2024/03/01 04:20 EGQA 010420Z AUTO 19002KT 9999 NCD M01/M03 Q0993
 
EGQM - Boulmer, United Kingdom
Distance from station: SE 154km
Updated: 01/03/2024 04:20
Few Clouds
Few Clouds
 Wind from WNW
Wind: WNW 3 mph , 6 km/h
Temperature: 0°C
Dew Point: -1°C
Humidity: 93%
Barometer: 994 hPa
Clouds: Few Clouds
Visibility: 6 miles , 10 km
Cloud details: Few Clouds 1829 m
2024/03/01 04:20 EGQM 010420Z AUTO 30003KT 9999 FEW060/// M00/M01 Q0994